sensor_id;sensor_type;location;lat;lon;timestamp;pressure;altitude;pressure_sealevel;temperature;humidity
141;BME280;65;48.778;9.160;2023-02-07T00:00:02;100412.81;;;1.23;92.08
141;BME280;65;48.778;9.160;2023-02-07T00:02:29;100407.59;;;1.23;91.99
141;BME280;65;48.778;9.160;2023-02-07T00:04:54;100416.97;;;1.10;89.94
141;BME280;65;48.778;9.160;2023-02-07T00:07:19;100420.47;;;1.14;88.72
141;BME280;65;48.778;9.160;2023-02-07T00:09:45;100422.75;;;0.82;85.17
141;BME280;65;48.778;9.160;2023-02-07T00:12:10;100428.41;;;0.52;85.35
141;BME280;65;48.778;9.160;2023-02-07T00:14:36;100429.06;;;0.36;86.22
141;BME280;65;48.778;9.160;2023-02-07T00:17:01;100431.47;;;0.22;86.16
141;BME280;65;48.778;9.160;2023-02-07T00:19:26;100432.25;;;0.15;86.89
141;BME280;65;48.778;9.160;2023-02-07T00:21:52;100429.66;;;0.16;87.08
141;BME280;65;48.778;9.160;2023-02-07T00:24:17;100432.94;;;0.03;87.04
141;BME280;65;48.778;9.160;2023-02-07T00:26:43;100435.25;;;-0.12;87.20
141;BME280;65;48.778;9.160;2023-02-07T00:29:11;100436.91;;;-0.17;86.62
141;BME280;65;48.778;9.160;2023-02-07T00:31:36;100436.13;;;-0.12;86.42
141;BME280;65;48.778;9.160;2023-02-07T00:34:04;100432.69;;;-0.11;87.16
141;BME280;65;48.778;9.160;2023-02-07T00:36:31;100437.75;;;-0.20;87.12
141;BME280;65;48.778;9.160;2023-02-07T00:39:00;100435.78;;;-0.35;85.95
141;BME280;65;48.778;9.160;2023-02-07T00:41:34;100441.66;;;-0.45;84.74
141;BME280;65;48.778;9.160;2023-02-07T00:44:00;100434.13;;;-0.29;85.66
141;BME280;65;48.778;9.160;2023-02-07T00:46:25;100434.81;;;-0.40;84.77
141;BME280;65;48.778;9.160;2023-02-07T00:48:50;100428.84;;;-0.36;83.92
141;BME280;65;48.778;9.160;2023-02-07T00:51:16;100436.53;;;-0.40;83.39
141;BME280;65;48.778;9.160;2023-02-07T00:53:42;100434.88;;;-0.37;85.42
141;BME280;65;48.778;9.160;2023-02-07T00:56:09;100436.50;;;-0.43;87.65
141;BME280;65;48.778;9.160;2023-02-07T00:58:35;100430.41;;;-0.45;89.10
141;BME280;65;48.778;9.160;2023-02-07T01:01:01;100440.00;;;-0.41;88.92
141;BME280;65;48.778;9.160;2023-02-07T01:03:26;100449.63;;;-0.36;87.58
141;BME280;65;48.778;9.160;2023-02-07T01:05:52;100440.97;;;-0.35;87.96
141;BME280;65;48.778;9.160;2023-02-07T01:08:17;100435.66;;;-0.41;87.64
141;BME280;65;48.778;9.160;2023-02-07T01:11:04;100431.31;;;-0.42;88.09
141;BME280;65;48.778;9.160;2023-02-07T01:13:30;100416.28;;;-0.59;88.44
141;BME280;65;48.778;9.160;2023-02-07T01:15:55;100407.28;;;-0.80;89.98
141;BME280;65;48.778;9.160;2023-02-07T01:18:21;100395.94;;;-0.85;90.54
141;BME280;65;48.778;9.160;2023-02-07T01:20:46;100402.78;;;-0.88;91.38
141;BME280;65;48.778;9.160;2023-02-07T01:23:12;100417.47;;;-0.90;91.96
141;BME280;65;48.778;9.160;2023-02-07T01:25:39;100424.34;;;-0.92;92.39
141;BME280;65;48.778;9.160;2023-02-07T01:28:05;100421.72;;;-0.94;91.29
141;BME280;65;48.778;9.160;2023-02-07T01:30:31;100433.81;;;-0.94;91.88
141;BME280;65;48.778;9.160;2023-02-07T01:32:56;100434.56;;;-1.00;91.69
141;BME280;65;48.778;9.160;2023-02-07T01:35:22;100423.38;;;-0.98;91.62
141;BME280;65;48.778;9.160;2023-02-07T01:37:47;100417.34;;;-0.97;91.61
141;BME280;65;48.778;9.160;2023-02-07T01:40:13;100438.81;;;-1.05;93.28
141;BME280;65;48.778;9.160;2023-02-07T01:42:38;100443.28;;;-0.98;92.73
141;BME280;65;48.778;9.160;2023-02-07T01:45:07;100451.91;;;-0.99;92.01
141;BME280;65;48.778;9.160;2023-02-07T01:47:36;100464.81;;;-1.02;92.29
141;BME280;65;48.778;9.160;2023-02-07T01:50:02;100469.13;;;-1.03;92.55
141;BME280;65;48.778;9.160;2023-02-07T01:52:32;100469.94;;;-1.05;91.82
141;BME280;65;48.778;9.160;2023-02-07T01:55:03;100475.06;;;-1.08;93.17
141;BME280;65;48.778;9.160;2023-02-07T01:57:30;100473.50;;;-1.00;91.88
141;BME280;65;48.778;9.160;2023-02-07T01:59:57;100457.13;;;-0.98;91.46
141;BME280;65;48.778;9.160;2023-02-07T02:02:25;100452.84;;;-0.94;90.87
141;BME280;65;48.778;9.160;2023-02-07T02:04:53;100457.97;;;-0.99;90.75
141;BME280;65;48.778;9.160;2023-02-07T02:07:20;100451.88;;;-1.01;90.88
141;BME280;65;48.778;9.160;2023-02-07T02:09:47;100459.38;;;-1.14;91.05
141;BME280;65;48.778;9.160;2023-02-07T02:18:48;100458.22;;;-1.27;90.67
141;BME280;65;48.778;9.160;2023-02-07T02:21:56;100453.88;;;-1.28;90.89
141;BME280;65;48.778;9.160;2023-02-07T02:30:35;100445.50;;;-1.57;90.76
141;BME280;65;48.778;9.160;2023-02-07T02:39:01;100448.94;;;-1.58;91.93
141;BME280;65;48.778;9.160;2023-02-07T02:41:37;100449.81;;;-1.57;91.61
141;BME280;65;48.778;9.160;2023-02-07T02:44:12;100446.22;;;-1.64;91.76
141;BME280;65;48.778;9.160;2023-02-07T02:46:41;100459.94;;;-1.68;90.10
141;BME280;65;48.778;9.160;2023-02-07T02:49:11;100445.19;;;-1.71;89.96
141;BME280;65;48.778;9.160;2023-02-07T02:51:37;100448.00;;;-1.62;90.17
141;BME280;65;48.778;9.160;2023-02-07T02:54:03;100447.69;;;-1.74;89.88
141;BME280;65;48.778;9.160;2023-02-07T02:56:59;100453.06;;;-1.66;90.93
141;BME280;65;48.778;9.160;2023-02-07T03:02:22;100455.84;;;-1.58;88.86
141;BME280;65;48.778;9.160;2023-02-07T03:16:11;100465.09;;;-1.70;88.54
141;BME280;65;48.778;9.160;2023-02-07T03:21:16;100461.47;;;-1.76;89.00
141;BME280;65;48.778;9.160;2023-02-07T03:23:45;100472.66;;;-1.77;88.80
141;BME280;65;48.778;9.160;2023-02-07T03:26:12;100454.69;;;-1.71;88.16
141;BME280;65;48.778;9.160;2023-02-07T03:28:39;100470.13;;;-1.74;88.14
141;BME280;65;48.778;9.160;2023-02-07T03:31:07;100471.94;;;-1.73;89.61
141;BME280;65;48.778;9.160;2023-02-07T03:33:36;100468.25;;;-1.81;89.62
141;BME280;65;48.778;9.160;2023-02-07T03:36:29;100473.47;;;-1.80;89.38
141;BME280;65;48.778;9.160;2023-02-07T03:38:56;100471.72;;;-1.81;88.93
141;BME280;65;48.778;9.160;2023-02-07T03:41:30;100474.09;;;-1.90;88.88
141;BME280;65;48.778;9.160;2023-02-07T03:43:58;100472.34;;;-1.91;89.13
141;BME280;65;48.778;9.160;2023-02-07T03:46:25;100473.22;;;-1.91;88.81
141;BME280;65;48.778;9.160;2023-02-07T03:48:50;100470.59;;;-1.92;88.40
141;BME280;65;48.778;9.160;2023-02-07T03:51:16;100473.25;;;-1.89;88.33
141;BME280;65;48.778;9.160;2023-02-07T03:53:41;100481.03;;;-1.89;88.46
141;BME280;65;48.778;9.160;2023-02-07T03:56:07;100470.53;;;-1.95;88.32
141;BME280;65;48.778;9.160;2023-02-07T03:58:32;100473.81;;;-2.02;89.81
141;BME280;65;48.778;9.160;2023-02-07T04:00:57;100476.41;;;-2.02;89.40
141;BME280;65;48.778;9.160;2023-02-07T04:03:23;100469.41;;;-2.06;89.44
141;BME280;65;48.778;9.160;2023-02-07T04:05:48;100470.03;;;-2.16;90.57
141;BME280;65;48.778;9.160;2023-02-07T04:08:14;100469.16;;;-2.17;91.01
141;BME280;65;48.778;9.160;2023-02-07T04:10:39;100467.53;;;-2.12;90.61
141;BME280;65;48.778;9.160;2023-02-07T04:13:05;100455.50;;;-2.10;91.58
141;BME280;65;48.778;9.160;2023-02-07T04:15:30;100447.03;;;-2.03;91.49
141;BME280;65;48.778;9.160;2023-02-07T04:17:56;100450.50;;;-2.02;91.67
141;BME280;65;48.778;9.160;2023-02-07T04:20:21;100438.34;;;-2.05;92.05
141;BME280;65;48.778;9.160;2023-02-07T04:22:46;100433.88;;;-2.12;92.66
141;BME280;65;48.778;9.160;2023-02-07T04:25:12;100437.97;;;-2.21;92.29
141;BME280;65;48.778;9.160;2023-02-07T04:27:37;100444.75;;;-2.27;93.84
141;BME280;65;48.778;9.160;2023-02-07T04:30:03;100448.28;;;-2.23;94.15
141;BME280;65;48.778;9.160;2023-02-07T04:32:29;100445.88;;;-2.15;94.08
141;BME280;65;48.778;9.160;2023-02-07T04:34:54;100451.81;;;-2.19;94.37
141;BME280;65;48.778;9.160;2023-02-07T04:37:19;100444.69;;;-2.28;94.58
141;BME280;65;48.778;9.160;2023-02-07T04:39:45;100448.91;;;-2.32;94.62
141;BME280;65;48.778;9.160;2023-02-07T04:42:11;100449.00;;;-2.29;94.44
141;BME280;65;48.778;9.160;2023-02-07T04:44:39;100448.03;;;-2.32;94.90
141;BME280;65;48.778;9.160;2023-02-07T04:47:04;100455.03;;;-2.30;94.85
141;BME280;65;48.778;9.160;2023-02-07T04:49:31;100455.13;;;-2.25;94.09
141;BME280;65;48.778;9.160;2023-02-07T04:51:56;100449.91;;;-2.27;94.54
141;BME280;65;48.778;9.160;2023-02-07T04:54:22;100450.00;;;-2.24;93.26
141;BME280;65;48.778;9.160;2023-02-07T04:56:47;100446.63;;;-2.19;91.63
141;BME280;65;48.778;9.160;2023-02-07T04:59:12;100446.44;;;-2.27;92.77
141;BME280;65;48.778;9.160;2023-02-07T05:01:38;100451.66;;;-2.26;90.23
141;BME280;65;48.778;9.160;2023-02-07T05:04:22;100451.88;;;-2.16;89.09
141;BME280;65;48.778;9.160;2023-02-07T05:06:48;100456.31;;;-2.12;88.59
141;BME280;65;48.778;9.160;2023-02-07T05:09:13;100437.28;;;-2.13;87.39
141;BME280;65;48.778;9.160;2023-02-07T05:11:39;100433.09;;;-2.08;88.71
141;BME280;65;48.778;9.160;2023-02-07T05:14:04;100441.56;;;-2.15;88.33
141;BME280;65;48.778;9.160;2023-02-07T05:16:30;100440.63;;;-2.18;89.10
141;BME280;65;48.778;9.160;2023-02-07T05:18:55;100456.09;;;-2.21;89.73
141;BME280;65;48.778;9.160;2023-02-07T05:21:20;100458.44;;;-2.31;90.52
141;BME280;65;48.778;9.160;2023-02-07T05:23:46;100456.44;;;-2.41;90.68
141;BME280;65;48.778;9.160;2023-02-07T05:26:12;100454.66;;;-2.43;91.07
141;BME280;65;48.778;9.160;2023-02-07T05:28:38;100445.84;;;-2.50;92.00
141;BME280;65;48.778;9.160;2023-02-07T05:31:04;100445.09;;;-2.46;91.24
141;BME280;65;48.778;9.160;2023-02-07T05:33:29;100435.63;;;-2.45;91.58
141;BME280;65;48.778;9.160;2023-02-07T05:35:54;100439.22;;;-2.39;90.78
141;BME280;65;48.778;9.160;2023-02-07T05:38:20;100449.66;;;-2.36;90.81
141;BME280;65;48.778;9.160;2023-02-07T05:40:46;100464.34;;;-2.35;90.58
141;BME280;65;48.778;9.160;2023-02-07T05:43:12;100472.97;;;-2.36;89.98
141;BME280;65;48.778;9.160;2023-02-07T05:45:38;100466.78;;;-2.41;88.84
141;BME280;65;48.778;9.160;2023-02-07T05:48:04;100470.97;;;-2.46;88.89
141;BME280;65;48.778;9.160;2023-02-07T05:50:30;100458.72;;;-2.53;89.63
141;BME280;65;48.778;9.160;2023-02-07T05:52:55;100459.44;;;-2.59;89.06
141;BME280;65;48.778;9.160;2023-02-07T05:55:21;100451.78;;;-2.54;89.40
141;BME280;65;48.778;9.160;2023-02-07T05:57:46;100446.69;;;-2.51;89.96
141;BME280;65;48.778;9.160;2023-02-07T06:00:14;100464.06;;;-2.47;89.25
141;BME280;65;48.778;9.160;2023-02-07T06:02:41;100470.03;;;-2.49;89.46
141;BME280;65;48.778;9.160;2023-02-07T06:05:08;100459.63;;;-2.51;90.47
141;BME280;65;48.778;9.160;2023-02-07T06:07:33;100459.44;;;-2.59;90.61
141;BME280;65;48.778;9.160;2023-02-07T06:09:59;100459.19;;;-2.68;90.24
141;BME280;65;48.778;9.160;2023-02-07T06:12:24;100457.22;;;-2.78;91.14
141;BME280;65;48.778;9.160;2023-02-07T06:14:50;100449.22;;;-2.87;92.53
141;BME280;65;48.778;9.160;2023-02-07T06:17:15;100447.56;;;-2.83;91.86
141;BME280;65;48.778;9.160;2023-02-07T06:19:40;100447.56;;;-2.83;91.37
141;BME280;65;48.778;9.160;2023-02-07T06:22:06;100435.44;;;-2.86;91.43
141;BME280;65;48.778;9.160;2023-02-07T06:24:31;100435.28;;;-2.91;91.58
141;BME280;65;48.778;9.160;2023-02-07T06:26:57;100432.25;;;-2.76;89.53
141;BME280;65;48.778;9.160;2023-02-07T06:29:22;100439.09;;;-2.78;89.59
141;BME280;65;48.778;9.160;2023-02-07T06:31:47;100436.59;;;-2.75;89.35
141;BME280;65;48.778;9.160;2023-02-07T06:34:13;100435.94;;;-2.66;86.83
141;BME280;65;48.778;9.160;2023-02-07T06:36:38;100445.66;;;-2.58;85.38
141;BME280;65;48.778;9.160;2023-02-07T06:39:04;100456.81;;;-2.60;84.20
141;BME280;65;48.778;9.160;2023-02-07T06:41:29;100447.53;;;-2.52;80.74
141;BME280;65;48.778;9.160;2023-02-07T06:43:55;100459.88;;;-2.42;81.44
141;BME280;65;48.778;9.160;2023-02-07T06:46:20;100463.41;;;-2.38;81.85
141;BME280;65;48.778;9.160;2023-02-07T06:48:45;100462.41;;;-2.43;83.09
141;BME280;65;48.778;9.160;2023-02-07T06:51:11;100476.09;;;-2.49;83.85
141;BME280;65;48.778;9.160;2023-02-07T06:53:36;100478.78;;;-2.44;83.95
141;BME280;65;48.778;9.160;2023-02-07T06:56:02;100470.25;;;-2.40;83.75
141;BME280;65;48.778;9.160;2023-02-07T06:58:27;100463.47;;;-2.35;83.44
141;BME280;65;48.778;9.160;2023-02-07T07:00:52;100467.03;;;-2.32;83.47
141;BME280;65;48.778;9.160;2023-02-07T07:03:18;100469.34;;;-2.42;82.55
141;BME280;65;48.778;9.160;2023-02-07T07:05:43;100464.34;;;-2.35;82.51
141;BME280;65;48.778;9.160;2023-02-07T07:08:10;100472.13;;;-2.35;82.85
141;BME280;65;48.778;9.160;2023-02-07T07:10:36;100467.81;;;-2.34;84.44
141;BME280;65;48.778;9.160;2023-02-07T07:13:02;100472.06;;;-2.38;83.62
141;BME280;65;48.778;9.160;2023-02-07T07:15:28;100473.59;;;-2.44;83.91
141;BME280;65;48.778;9.160;2023-02-07T07:17:56;100471.84;;;-2.45;84.72
141;BME280;65;48.778;9.160;2023-02-07T07:20:21;100487.38;;;-2.45;84.33
141;BME280;65;48.778;9.160;2023-02-07T07:22:47;100494.41;;;-2.41;84.18
141;BME280;65;48.778;9.160;2023-02-07T07:25:13;100498.03;;;-2.35;83.93
141;BME280;65;48.778;9.160;2023-02-07T07:27:38;100492.19;;;-2.28;83.60
141;BME280;65;48.778;9.160;2023-02-07T07:30:04;100488.84;;;-2.24;83.14
141;BME280;65;48.778;9.160;2023-02-07T07:32:30;100490.44;;;-2.29;84.88
141;BME280;65;48.778;9.160;2023-02-07T07:34:56;100498.16;;;-2.30;85.22
141;BME280;65;48.778;9.160;2023-02-07T07:37:24;100488.56;;;-2.33;85.43
141;BME280;65;48.778;9.160;2023-02-07T07:39:49;100497.19;;;-2.34;86.58
141;BME280;65;48.778;9.160;2023-02-07T07:42:15;100496.50;;;-2.28;86.60
141;BME280;65;48.778;9.160;2023-02-07T07:44:40;100500.16;;;-2.20;84.65
141;BME280;65;48.778;9.160;2023-02-07T07:47:06;100489.78;;;-2.20;84.32
141;BME280;65;48.778;9.160;2023-02-07T07:49:31;100481.84;;;-2.28;84.51
141;BME280;65;48.778;9.160;2023-02-07T07:52:00;100481.97;;;-2.21;83.73
141;BME280;65;48.778;9.160;2023-02-07T07:54:25;100484.69;;;-2.17;83.70
141;BME280;65;48.778;9.160;2023-02-07T07:56:50;100485.72;;;-2.10;82.52
141;BME280;65;48.778;9.160;2023-02-07T07:59:16;100478.88;;;-2.07;82.08
141;BME280;65;48.778;9.160;2023-02-07T08:01:41;100480.63;;;-2.06;82.05
141;BME280;65;48.778;9.160;2023-02-07T08:04:07;100486.94;;;-1.95;81.03
141;BME280;65;48.778;9.160;2023-02-07T08:06:32;100487.03;;;-1.92;79.68
141;BME280;65;48.778;9.160;2023-02-07T08:08:58;100493.22;;;-1.85;79.48
141;BME280;65;48.778;9.160;2023-02-07T08:11:23;100497.53;;;-1.85;80.75
141;BME280;65;48.778;9.160;2023-02-07T08:13:49;100505.41;;;-1.81;80.85
141;BME280;65;48.778;9.160;2023-02-07T08:16:15;100514.94;;;-1.80;80.81
141;BME280;65;48.778;9.160;2023-02-07T08:18:41;100515.00;;;-1.77;81.28
141;BME280;65;48.778;9.160;2023-02-07T08:21:06;100528.88;;;-1.75;81.88
141;BME280;65;48.778;9.160;2023-02-07T08:23:32;100528.28;;;-1.65;81.21
141;BME280;65;48.778;9.160;2023-02-07T08:25:58;100526.59;;;-1.63;80.04
141;BME280;65;48.778;9.160;2023-02-07T08:28:25;100534.63;;;-1.52;79.21
141;BME280;65;48.778;9.160;2023-02-07T08:30:51;100532.91;;;-1.51;78.77
141;BME280;65;48.778;9.160;2023-02-07T08:33:16;100536.72;;;-1.36;79.06
141;BME280;65;48.778;9.160;2023-02-07T08:35:42;100540.28;;;-1.31;77.56
141;BME280;65;48.778;9.160;2023-02-07T08:38:07;100542.13;;;-1.25;77.35
141;BME280;65;48.778;9.160;2023-02-07T08:40:34;100548.13;;;-1.28;77.55
141;BME280;65;48.778;9.160;2023-02-07T08:42:59;100554.25;;;-1.24;78.23
141;BME280;65;48.778;9.160;2023-02-07T08:45:25;100569.91;;;-1.21;78.62
141;BME280;65;48.778;9.160;2023-02-07T08:47:51;100571.72;;;-1.17;78.05
141;BME280;65;48.778;9.160;2023-02-07T08:50:17;100576.00;;;-1.19;77.03
141;BME280;65;48.778;9.160;2023-02-07T08:52:43;100575.25;;;-1.15;77.07
141;BME280;65;48.778;9.160;2023-02-07T08:55:10;100578.78;;;-1.11;76.10
141;BME280;65;48.778;9.160;2023-02-07T08:57:36;100566.75;;;-1.08;75.85
141;BME280;65;48.778;9.160;2023-02-07T09:00:04;100565.97;;;-1.04;75.77
141;BME280;65;48.778;9.160;2023-02-07T09:02:30;100556.56;;;-0.99;75.52
141;BME280;65;48.778;9.160;2023-02-07T09:04:55;100534.97;;;-0.98;73.62
141;BME280;65;48.778;9.160;2023-02-07T09:07:21;100529.72;;;-1.01;74.45
141;BME280;65;48.778;9.160;2023-02-07T09:09:46;100530.31;;;-1.14;74.21
141;BME280;65;48.778;9.160;2023-02-07T09:12:12;100526.94;;;-1.10;74.96
141;BME280;65;48.778;9.160;2023-02-07T09:14:38;100531.22;;;-1.12;75.56
141;BME280;65;48.778;9.160;2023-02-07T09:17:03;100528.81;;;-1.03;74.91
141;BME280;65;48.778;9.160;2023-02-07T09:19:30;100533.16;;;-1.02;75.10
141;BME280;65;48.778;9.160;2023-02-07T09:21:55;100535.94;;;-0.92;74.68
141;BME280;65;48.778;9.160;2023-02-07T09:24:48;100536.19;;;-0.80;73.91
141;BME280;65;48.778;9.160;2023-02-07T09:27:13;100534.53;;;-0.77;73.58
141;BME280;65;48.778;9.160;2023-02-07T09:29:39;100537.38;;;-0.63;73.00
141;BME280;65;48.778;9.160;2023-02-07T09:32:04;100542.47;;;-0.69;73.82
141;BME280;65;48.778;9.160;2023-02-07T09:34:33;100538.50;;;-0.52;72.40
141;BME280;65;48.778;9.160;2023-02-07T09:36:59;100542.22;;;-0.38;72.48
141;BME280;65;48.778;9.160;2023-02-07T09:39:25;100540.59;;;-0.33;72.15
141;BME280;65;48.778;9.160;2023-02-07T09:45:19;100541.16;;;-0.49;71.27
141;BME280;65;48.778;9.160;2023-02-07T09:47:48;100551.81;;;-0.34;73.09
141;BME280;65;48.778;9.160;2023-02-07T09:50:21;100557.31;;;-0.17;72.06
141;BME280;65;48.778;9.160;2023-02-07T09:52:53;100558.47;;;-0.01;71.19
141;BME280;65;48.778;9.160;2023-02-07T09:55:22;100566.84;;;-0.17;71.58
141;BME280;65;48.778;9.160;2023-02-07T09:57:59;100564.03;;;-0.28;70.74
141;BME280;65;48.778;9.160;2023-02-07T10:00:33;100566.00;;;-0.16;70.91
141;BME280;65;48.778;9.160;2023-02-07T10:03:24;100563.38;;;-0.18;71.17
141;BME280;65;48.778;9.160;2023-02-07T10:06:04;100562.59;;;-0.12;70.20
141;BME280;65;48.778;9.160;2023-02-07T10:08:32;100560.97;;;-0.07;72.54
141;BME280;65;48.778;9.160;2023-02-07T10:11:12;100547.16;;;-0.03;70.58
141;BME280;65;48.778;9.160;2023-02-07T10:16:25;100546.44;;;0.03;70.26
141;BME280;65;48.778;9.160;2023-02-07T10:21:42;100553.69;;;0.23;71.74
141;BME280;65;48.778;9.160;2023-02-07T10:26:58;100565.25;;;0.41;69.05
141;BME280;65;48.778;9.160;2023-02-07T10:30:02;100561.97;;;0.54;68.39
141;BME280;65;48.778;9.160;2023-02-07T10:32:35;100568.09;;;0.57;67.91
141;BME280;65;48.778;9.160;2023-02-07T10:35:12;100561.00;;;0.46;67.73
141;BME280;65;48.778;9.160;2023-02-07T10:37:39;100564.88;;;0.72;67.11
141;BME280;65;48.778;9.160;2023-02-07T10:40:39;100551.19;;;0.87;65.84
141;BME280;65;48.778;9.160;2023-02-07T10:43:19;100557.38;;;0.93;66.00
141;BME280;65;48.778;9.160;2023-02-07T10:45:51;100560.91;;;0.99;65.16
141;BME280;65;48.778;9.160;2023-02-07T10:48:20;100560.94;;;1.00;65.63
141;BME280;65;48.778;9.160;2023-02-07T10:50:46;100562.69;;;1.03;65.58
141;BME280;65;48.778;9.160;2023-02-07T10:53:41;100566.88;;;0.91;65.63
141;BME280;65;48.778;9.160;2023-02-07T10:56:14;100549.84;;;1.15;65.40
141;BME280;65;48.778;9.160;2023-02-07T10:58:40;100561.19;;;1.17;66.58
141;BME280;65;48.778;9.160;2023-02-07T11:01:16;100556.06;;;1.26;64.97
141;BME280;65;48.778;9.160;2023-02-07T11:03:42;100547.41;;;1.27;66.12
141;BME280;65;48.778;9.160;2023-02-07T11:06:07;100552.53;;;1.21;67.47
141;BME280;65;48.778;9.160;2023-02-07T11:08:35;100559.56;;;1.26;65.75
141;BME280;65;48.778;9.160;2023-02-07T11:11:30;100569.31;;;1.43;66.46
141;BME280;65;48.778;9.160;2023-02-07T11:14:03;100570.13;;;1.39;64.16
141;BME280;65;48.778;9.160;2023-02-07T11:16:29;100567.56;;;1.42;63.71
141;BME280;65;48.778;9.160;2023-02-07T11:21:39;100562.53;;;1.58;65.20
141;BME280;65;48.778;9.160;2023-02-07T11:24:18;100559.91;;;1.58;64.42
141;BME280;65;48.778;9.160;2023-02-07T11:29:19;100552.22;;;1.71;64.36
141;BME280;65;48.778;9.160;2023-02-07T11:31:47;100549.72;;;1.77;65.61
141;BME280;65;48.778;9.160;2023-02-07T11:34:27;100561.09;;;1.85;63.47
141;BME280;65;48.778;9.160;2023-02-07T11:36:55;100559.34;;;1.84;62.87
141;BME280;65;48.778;9.160;2023-02-07T11:42:35;100549.75;;;1.81;63.76
141;BME280;65;48.778;9.160;2023-02-07T11:45:04;100547.25;;;1.90;65.12
141;BME280;65;48.778;9.160;2023-02-07T11:47:30;100553.25;;;1.82;64.08
141;BME280;65;48.778;9.160;2023-02-07T11:49:58;100551.66;;;1.96;62.83
141;BME280;65;48.778;9.160;2023-02-07T11:52:25;100545.66;;;2.09;62.00
141;BME280;65;48.778;9.160;2023-02-07T11:54:58;100538.72;;;2.08;62.84
141;BME280;65;48.778;9.160;2023-02-07T11:57:27;100544.78;;;2.07;63.03
141;BME280;65;48.778;9.160;2023-02-07T12:00:02;100546.63;;;2.17;63.47
141;BME280;65;48.778;9.160;2023-02-07T12:02:31;100540.59;;;2.26;63.62
141;BME280;65;48.778;9.160;2023-02-07T12:05:23;100538.06;;;2.32;63.63
141;BME280;65;48.778;9.160;2023-02-07T12:07:55;100542.44;;;2.36;62.87
141;BME280;65;48.778;9.160;2023-02-07T12:10:27;100532.13;;;2.53;62.24
141;BME280;65;48.778;9.160;2023-02-07T12:15:59;100529.59;;;2.67;58.02
141;BME280;65;48.778;9.160;2023-02-07T12:22:00;100528.63;;;2.51;59.56
141;BME280;65;48.778;9.160;2023-02-07T12:24:51;100528.69;;;2.60;60.71
141;BME280;65;48.778;9.160;2023-02-07T12:27:21;100516.44;;;2.51;62.03
141;BME280;65;48.778;9.160;2023-02-07T12:30:29;100520.91;;;2.66;61.10
141;BME280;65;48.778;9.160;2023-02-07T12:35:45;100519.09;;;2.58;61.76
141;BME280;65;48.778;9.160;2023-02-07T12:41:11;100508.81;;;2.86;59.91
141;BME280;65;48.778;9.160;2023-02-07T12:43:47;100503.66;;;2.90;58.53
141;BME280;65;48.778;9.160;2023-02-07T12:55:43;100493.19;;;2.91;58.66
141;BME280;65;48.778;9.160;2023-02-07T13:00:36;100486.31;;;3.11;56.96
141;BME280;65;48.778;9.160;2023-02-07T13:03:12;100478.53;;;3.25;55.73
141;BME280;65;48.778;9.160;2023-02-07T13:06:02;100484.59;;;3.16;57.14
141;BME280;65;48.778;9.160;2023-02-07T13:08:43;100482.91;;;3.32;55.47
141;BME280;65;48.778;9.160;2023-02-07T13:12:07;100483.75;;;3.22;57.08
141;BME280;65;48.778;9.160;2023-02-07T13:14:58;100478.56;;;3.43;54.65
141;BME280;65;48.778;9.160;2023-02-07T13:23:17;100483.88;;;3.62;53.13
141;BME280;65;48.778;9.160;2023-02-07T13:25:47;100488.22;;;3.66;54.39
141;BME280;65;48.778;9.160;2023-02-07T13:28:22;100477.78;;;3.69;53.66
141;BME280;65;48.778;9.160;2023-02-07T13:30:52;100475.16;;;3.69;52.38
141;BME280;65;48.778;9.160;2023-02-07T13:33:46;100476.91;;;3.65;51.99
141;BME280;65;48.778;9.160;2023-02-07T13:45:14;100476.91;;;3.73;51.99
141;BME280;65;48.778;9.160;2023-02-07T13:47:52;100479.50;;;3.52;51.79
141;BME280;65;48.778;9.160;2023-02-07T13:53:46;100479.50;;;3.53;51.58
141;BME280;65;48.778;9.160;2023-02-07T13:56:15;100475.16;;;3.76;52.52
141;BME280;65;48.778;9.160;2023-02-07T13:59:00;100480.38;;;3.76;55.04
141;BME280;65;48.778;9.160;2023-02-07T14:01:48;100483.00;;;3.87;52.96
141;BME280;65;48.778;9.160;2023-02-07T14:04:15;100480.41;;;3.90;52.58
141;BME280;65;48.778;9.160;2023-02-07T14:06:43;100475.16;;;3.95;50.81
141;BME280;65;48.778;9.160;2023-02-07T14:12:00;100479.53;;;3.90;50.35
141;BME280;65;48.778;9.160;2023-02-07T14:14:39;100467.31;;;3.95;50.40
141;BME280;65;48.778;9.160;2023-02-07T14:19:56;100463.84;;;3.85;51.14
141;BME280;65;48.778;9.160;2023-02-07T14:22:30;100459.47;;;3.95;50.63
141;BME280;65;48.778;9.160;2023-02-07T14:32:30;100470.81;;;3.81;50.14
141;BME280;65;48.778;9.160;2023-02-07T14:40:35;100466.44;;;3.94;49.98
141;BME280;65;48.778;9.160;2023-02-07T14:45:41;100467.34;;;4.21;49.92
141;BME280;65;48.778;9.160;2023-02-07T14:48:52;100453.16;;;5.02;46.59
141;BME280;65;48.778;9.160;2023-02-07T14:56:36;100460.13;;;10.03;36.18
141;BME280;65;48.778;9.160;2023-02-07T15:02:29;100465.38;;;10.74;33.70
141;BME280;65;48.778;9.160;2023-02-07T15:04:55;100471.75;;;11.29;31.60
141;BME280;65;48.778;9.160;2023-02-07T15:07:21;100472.59;;;10.33;33.90
141;BME280;65;48.778;9.160;2023-02-07T15:09:47;100477.19;;;10.93;32.58
141;BME280;65;48.778;9.160;2023-02-07T15:12:25;100473.44;;;11.31;33.84
141;BME280;65;48.778;9.160;2023-02-07T15:14:52;100476.97;;;12.19;31.30
141;BME280;65;48.778;9.160;2023-02-07T15:17:22;100469.09;;;11.88;32.16
141;BME280;65;48.778;9.160;2023-02-07T15:19:52;100472.28;;;10.47;31.21
141;BME280;65;48.778;9.160;2023-02-07T15:22:25;100476.44;;;10.22;32.10
141;BME280;65;48.778;9.160;2023-02-07T15:24:55;100475.59;;;11.48;30.72
141;BME280;65;48.778;9.160;2023-02-07T15:27:24;100473.03;;;11.45;30.64
141;BME280;65;48.778;9.160;2023-02-07T15:32:30;100476.66;;;10.11;32.48
141;BME280;65;48.778;9.160;2023-02-07T15:34:58;100481.19;;;9.69;33.38
141;BME280;65;48.778;9.160;2023-02-07T15:37:25;100485.16;;;9.06;33.62
141;BME280;65;48.778;9.160;2023-02-07T15:39:56;100479.88;;;8.08;34.64
141;BME280;65;48.778;9.160;2023-02-07T15:42:52;100485.00;;;8.17;36.23
141;BME280;65;48.778;9.160;2023-02-07T15:45:37;100482.66;;;7.37;37.46
141;BME280;65;48.778;9.160;2023-02-07T15:48:14;100477.13;;;7.58;37.00
141;BME280;65;48.778;9.160;2023-02-07T15:50:40;100482.66;;;7.37;37.90
141;BME280;65;48.778;9.160;2023-02-07T15:53:07;100483.06;;;7.05;37.29
141;BME280;65;48.778;9.160;2023-02-07T15:58:03;100480.28;;;4.89;43.21
141;BME280;65;48.778;9.160;2023-02-07T16:00:38;100487.41;;;4.14;45.18
141;BME280;65;48.778;9.160;2023-02-07T16:03:11;100489.97;;;3.64;45.95
141;BME280;65;48.778;9.160;2023-02-07T16:06:23;100495.97;;;3.37;46.49
141;BME280;65;48.778;9.160;2023-02-07T16:08:51;100493.31;;;3.22;47.43
141;BME280;65;48.778;9.160;2023-02-07T16:11:38;100498.44;;;2.97;49.26